createdAt,value
2018-04-18T00:01:28.558Z,99.90
2018-04-18T00:03:56.761Z,99.90
2018-04-18T00:06:24.155Z,99.90
2018-04-18T00:08:52.335Z,99.90
2018-04-18T00:11:19.750Z,99.90
2018-04-18T00:13:47.143Z,99.90
2018-04-18T00:16:14.571Z,99.90
2018-04-18T00:18:41.975Z,99.90
2018-04-18T00:21:10.146Z,99.90
2018-04-18T00:23:37.556Z,99.90
2018-04-18T00:26:04.950Z,99.90
2018-04-18T00:28:32.415Z,99.90
2018-04-18T00:30:59.826Z,99.90
2018-04-18T00:33:27.240Z,99.90
2018-04-18T00:35:54.634Z,99.90
2018-04-18T00:38:22.053Z,99.90
2018-04-18T00:40:49.446Z,99.90
2018-04-18T00:43:18.371Z,99.90
2018-04-18T00:45:45.782Z,99.90
2018-04-18T00:48:13.174Z,99.90
2018-04-18T00:50:40.590Z,99.90
2018-04-18T00:53:08.004Z,99.90
2018-04-18T00:55:36.163Z,99.90
2018-04-18T00:58:04.327Z,99.90
2018-04-18T01:00:32.510Z,99.90
2018-04-18T01:02:59.919Z,99.90
2018-04-18T01:05:28.087Z,99.90
2018-04-18T01:07:56.250Z,99.90
2018-04-18T01:10:23.666Z,99.90
2018-04-18T01:12:51.088Z,99.90
2018-04-18T01:15:18.470Z,99.90
2018-04-18T01:17:45.890Z,99.90
2018-04-18T01:20:13.387Z,99.90
2018-04-18T01:22:40.794Z,99.90
2018-04-18T01:25:08.265Z,99.90
2018-04-18T01:27:35.658Z,99.90
2018-04-18T01:30:03.065Z,99.90
2018-04-18T01:32:30.475Z,99.90
2018-04-18T01:34:57.898Z,99.90
2018-04-18T01:37:26.090Z,99.90
2018-04-18T01:39:53.515Z,99.90
2018-04-18T01:42:20.955Z,99.90
2018-04-18T01:44:48.369Z,99.90
2018-04-18T01:47:16.555Z,99.90
2018-04-18T01:49:43.971Z,99.90
2018-04-18T01:52:11.359Z,99.90
2018-04-18T01:54:38.779Z,99.90
2018-04-18T01:57:06.194Z,99.90
2018-04-18T01:59:33.594Z,99.90
2018-04-18T02:02:01.002Z,99.90
2018-04-18T02:04:28.407Z,99.90
2018-04-18T02:06:55.810Z,99.90
2018-04-18T02:09:23.220Z,99.90
2018-04-18T02:11:51.390Z,99.90
2018-04-18T02:14:18.803Z,99.90
2018-04-18T02:16:46.970Z,99.90
2018-04-18T02:19:14.451Z,99.90
2018-04-18T02:21:41.850Z,99.90
2018-04-18T02:24:10.035Z,99.90
2018-04-18T02:26:37.450Z,99.90
2018-04-18T02:29:05.639Z,99.90
2018-04-18T02:31:33.082Z,99.90
2018-04-18T02:34:01.227Z,99.90
2018-04-18T02:36:28.627Z,99.90
2018-04-18T02:38:56.048Z,99.90
2018-04-18T02:41:23.430Z,99.90
2018-04-18T02:43:51.594Z,99.90
2018-04-18T02:46:19.010Z,99.90
2018-04-18T02:48:47.195Z,99.90
2018-04-18T02:51:15.359Z,99.90
2018-04-18T02:53:42.776Z,99.90
2018-04-18T02:56:10.183Z,99.90
2018-04-18T02:58:37.606Z,99.90
2018-04-18T03:01:05.650Z,99.90
2018-04-18T03:03:33.061Z,99.90
2018-04-18T03:06:01.235Z,99.90
2018-04-18T03:08:28.642Z,99.90
2018-04-18T03:10:56.062Z,99.90
2018-04-18T03:13:23.475Z,99.90
2018-04-18T03:15:50.878Z,99.90
2018-04-18T03:18:19.055Z,99.90
2018-04-18T03:20:46.466Z,99.90
2018-04-18T03:23:13.871Z,99.90
2018-04-18T03:25:41.291Z,99.90
2018-04-18T03:28:08.720Z,99.90
2018-04-18T03:30:36.895Z,99.90
2018-04-18T03:33:04.295Z,99.90
2018-04-18T03:35:31.708Z,99.90
2018-04-18T03:37:59.099Z,99.90
2018-04-18T03:40:26.510Z,99.90
2018-04-18T03:42:53.919Z,99.90
2018-04-18T03:45:21.334Z,99.90
2018-04-18T03:47:48.754Z,99.90
2018-04-18T03:50:16.947Z,99.90
2018-04-18T03:52:45.392Z,99.90
2018-04-18T03:55:13.564Z,99.90
2018-04-18T03:57:40.998Z,99.90
2018-04-18T04:00:08.431Z,99.90
2018-04-18T04:02:36.598Z,99.90
2018-04-18T04:05:04.025Z,99.90
2018-04-18T04:07:31.408Z,99.90
2018-04-18T04:09:58.818Z,99.90
2018-04-18T04:12:26.227Z,99.90
2018-04-18T04:14:53.639Z,99.90
2018-04-18T04:17:33.066Z,99.90
2018-04-18T04:20:12.414Z,99.90
2018-04-18T04:22:52.628Z,99.90
2018-04-18T04:25:20.039Z,99.90
2018-04-18T04:27:47.438Z,99.90
2018-04-18T04:30:15.610Z,99.90
2018-04-18T04:32:43.015Z,99.90
2018-04-18T04:35:10.418Z,99.90
2018-04-18T04:37:37.831Z,99.90
2018-04-18T04:40:06.007Z,99.90
2018-04-18T04:42:33.427Z,99.90
2018-04-18T04:45:01.631Z,99.90
2018-04-18T04:47:29.002Z,99.90
2018-04-18T04:49:56.410Z,99.90
2018-04-18T04:52:23.838Z,99.90
2018-04-18T04:54:51.239Z,99.90
2018-04-18T04:57:19.407Z,99.90
2018-04-18T04:59:47.583Z,99.90
2018-04-18T05:02:14.986Z,99.90
2018-04-18T05:04:42.474Z,99.90
2018-04-18T05:07:09.871Z,99.90
2018-04-18T05:09:37.276Z,99.90
2018-04-18T05:12:04.719Z,99.90
2018-04-18T05:14:32.114Z,99.90
2018-04-18T05:17:00.278Z,99.90
2018-04-18T05:19:27.690Z,99.90
2018-04-18T05:21:55.086Z,99.90
2018-04-18T05:24:22.475Z,99.90
2018-04-18T05:26:49.879Z,99.90
2018-04-18T05:29:17.306Z,99.90
2018-04-18T05:31:44.710Z,99.90
2018-04-18T05:34:12.874Z,99.90
2018-04-18T05:36:41.043Z,99.90
2018-04-18T05:39:08.455Z,99.90
2018-04-18T05:41:35.867Z,99.90
2018-04-18T05:44:03.283Z,99.90
2018-04-18T05:46:30.695Z,99.90
2018-04-18T05:48:58.878Z,99.90
2018-04-18T05:51:26.291Z,99.90
2018-04-18T05:53:54.511Z,99.90
2018-04-18T05:56:21.927Z,99.90
2018-04-18T05:58:49.338Z,99.90
2018-04-18T06:01:17.518Z,99.90
2018-04-18T06:03:44.922Z,99.90
2018-04-18T06:06:12.444Z,99.90
2018-04-18T06:08:39.826Z,99.90
2018-04-18T06:11:08.005Z,99.90
2018-04-18T06:13:35.414Z,99.90
2018-04-18T06:16:03.603Z,99.90
2018-04-18T06:18:31.770Z,99.90
2018-04-18T06:20:59.178Z,99.90
2018-04-18T06:23:27.405Z,99.90
2018-04-18T06:25:54.782Z,99.90
2018-04-18T06:28:22.965Z,99.90
2018-04-18T06:30:50.367Z,99.90
2018-04-18T06:33:18.550Z,99.90
2018-04-18T06:35:45.967Z,99.90
2018-04-18T06:38:14.153Z,99.90
2018-04-18T06:40:42.327Z,99.90
2018-04-18T06:43:09.734Z,99.90
2018-04-18T06:45:37.912Z,99.90
2018-04-18T06:48:05.335Z,99.90
2018-04-18T06:50:33.510Z,99.90
2018-04-18T06:53:00.974Z,99.90
2018-04-18T06:55:28.407Z,99.90
2018-04-18T06:57:55.867Z,99.90
2018-04-18T07:00:23.275Z,99.90
2018-04-18T07:02:50.687Z,99.90
2018-04-18T07:05:18.199Z,99.90
2018-04-18T07:07:45.624Z,99.90
2018-04-18T07:10:13.035Z,99.90
2018-04-18T07:12:41.211Z,99.90
2018-04-18T07:15:08.623Z,99.90
2018-04-18T07:17:36.807Z,99.90
2018-04-18T07:20:04.220Z,99.90
2018-04-18T07:22:31.639Z,99.90
2018-04-18T07:24:59.046Z,99.90
2018-04-18T07:27:26.464Z,99.90
2018-04-18T07:29:54.634Z,99.90
2018-04-18T07:32:22.048Z,99.90
2018-04-18T07:34:50.223Z,99.90
2018-04-18T07:37:17.646Z,99.90
2018-04-18T07:39:45.822Z,99.90
2018-04-18T07:42:13.242Z,99.90
2018-04-18T07:44:40.740Z,99.90
2018-04-18T07:47:08.155Z,99.90
2018-04-18T07:49:35.567Z,99.90
2018-04-18T07:52:02.996Z,99.90
2018-04-18T07:54:30.506Z,99.90
2018-04-18T07:56:57.926Z,99.90
2018-04-18T07:59:25.335Z,99.90
2018-04-18T08:01:52.853Z,99.90
2018-04-18T08:04:20.256Z,99.90
2018-04-18T08:06:47.666Z,99.90
2018-04-18T08:09:15.839Z,98.80
2018-04-18T08:11:43.252Z,98.80
2018-04-18T08:14:10.739Z,98.10
2018-04-18T08:16:38.146Z,98.50
2018-04-18T08:19:06.466Z,97.20
2018-04-18T08:21:33.852Z,97.20
2018-04-18T08:24:02.035Z,97.10
2018-04-18T08:26:29.443Z,97.00
2018-04-18T08:28:56.939Z,97.40
2018-04-18T08:31:24.370Z,97.10
2018-04-18T08:33:51.814Z,96.60
2018-04-18T08:36:19.257Z,96.80
2018-04-18T08:38:46.659Z,97.00
2018-04-18T08:41:14.847Z,96.50
2018-04-18T08:43:42.255Z,96.50
2018-04-18T08:46:10.427Z,95.30
2018-04-18T08:48:38.603Z,94.90
2018-04-18T08:51:06.023Z,94.90
2018-04-18T08:53:34.199Z,94.70
2018-04-18T08:56:01.618Z,94.70
2018-04-18T08:58:29.795Z,93.80
2018-04-18T09:00:57.266Z,93.80
2018-04-18T09:03:24.697Z,93.40
2018-04-18T09:05:52.143Z,92.40
2018-04-18T09:08:19.550Z,91.70
2018-04-18T09:10:47.731Z,92.20
2018-04-18T09:13:15.155Z,92.20
2018-04-18T09:15:42.595Z,92.90
2018-04-18T09:18:10.802Z,91.30
2018-04-18T09:20:38.191Z,91.20
2018-04-18T09:23:06.371Z,90.90
2018-04-18T09:25:33.786Z,90.50
2018-04-18T09:28:01.983Z,90.30
2018-04-18T09:30:29.387Z,90.30
2018-04-18T09:32:57.578Z,90.90
2018-04-18T09:35:24.983Z,90.90
2018-04-18T09:37:53.158Z,86.20
2018-04-18T09:40:20.620Z,86.00
2018-04-18T09:42:48.027Z,83.90
2018-04-18T09:45:16.197Z,81.90
2018-04-18T09:47:43.603Z,81.80
2018-04-18T09:50:11.024Z,82.00
2018-04-18T09:52:38.438Z,80.90
2018-04-18T09:55:05.859Z,84.80
2018-04-18T09:57:34.030Z,79.90
2018-04-18T10:00:01.435Z,80.00
2018-04-18T10:02:29.615Z,76.00
2018-04-18T10:05:03.635Z,74.40
2018-04-18T10:07:31.044Z,74.30
2018-04-18T10:09:59.251Z,69.20
2018-04-18T10:12:26.654Z,69.20
2018-04-18T10:14:54.843Z,70.40
2018-04-18T10:17:22.256Z,70.30
2018-04-18T10:19:49.662Z,72.00
2018-04-18T10:22:17.059Z,69.90
2018-04-18T10:24:44.467Z,70.00
2018-04-18T10:27:12.627Z,65.20
2018-04-18T10:29:40.794Z,65.90
2018-04-18T10:32:08.194Z,65.90
2018-04-18T10:34:35.606Z,66.90
2018-04-18T10:37:03.007Z,66.00
2018-04-18T10:39:31.189Z,64.60
2018-04-18T10:41:58.642Z,64.50
2018-04-18T10:44:26.074Z,65.20
2018-04-18T10:46:53.494Z,64.90
2018-04-18T10:49:21.666Z,66.10
2018-04-18T10:51:49.064Z,65.90
2018-04-18T10:54:16.474Z,60.90
2018-04-18T10:56:43.875Z,66.50
2018-04-18T10:59:12.047Z,59.80
2018-04-18T11:01:39.453Z,59.80
2018-04-18T11:04:06.860Z,62.40
2018-04-18T11:06:34.303Z,60.10
2018-04-18T11:09:01.731Z,57.60
2018-04-18T11:11:29.170Z,57.40
2018-04-18T11:13:56.590Z,55.30
2018-04-18T11:16:23.987Z,56.20
2018-04-18T11:18:51.494Z,52.60
2018-04-18T11:21:18.895Z,52.60
2018-04-18T11:23:47.109Z,48.90
2018-04-18T11:26:14.515Z,48.90
2018-04-18T11:28:41.926Z,50.00
2018-04-18T11:31:09.428Z,49.90
2018-04-18T11:33:36.838Z,48.90
2018-04-18T11:36:04.318Z,49.00
2018-04-18T11:38:31.751Z,43.80
2018-04-18T11:40:59.150Z,46.90
2018-04-18T11:43:27.319Z,43.00
2018-04-18T11:45:54.799Z,42.90
2018-04-18T11:48:22.206Z,42.00
2018-04-18T11:50:50.383Z,41.70
2018-04-18T11:53:17.787Z,41.80
2018-04-18T11:55:45.954Z,38.60
2018-04-18T11:58:14.142Z,39.50
2018-04-18T12:00:41.544Z,39.50
2018-04-18T12:03:09.738Z,43.20
2018-04-18T12:05:37.178Z,43.10
2018-04-18T12:08:04.626Z,37.90
2018-04-18T12:10:32.071Z,38.30
2018-04-18T12:12:59.474Z,37.20
2018-04-18T12:15:27.675Z,34.20
2018-04-18T12:17:55.083Z,34.10
2018-04-18T12:20:23.255Z,36.40
2018-04-18T12:22:50.677Z,36.40
2018-04-18T12:25:18.869Z,37.10
2018-04-18T12:27:46.278Z,37.10
2018-04-18T12:30:14.447Z,34.10
2018-04-18T12:32:41.915Z,34.00
2018-04-18T12:35:09.314Z,37.30
2018-04-18T12:37:36.790Z,35.30
2018-04-18T12:40:04.200Z,34.80
2018-04-18T12:42:32.396Z,35.00
2018-04-18T12:44:59.795Z,34.90
2018-04-18T12:47:27.967Z,34.90
2018-04-18T12:49:56.167Z,34.20
2018-04-18T12:52:23.576Z,34.10
2018-04-18T12:54:50.995Z,32.90
2018-04-18T12:57:19.192Z,32.00
2018-04-18T12:59:46.689Z,32.00
2018-04-18T13:02:14.046Z,31.60
2018-04-18T13:04:42.216Z,32.40
2018-04-18T13:07:09.610Z,32.30
2018-04-18T13:09:37.014Z,33.00
2018-04-18T13:12:04.462Z,28.70
2018-04-18T13:14:31.903Z,30.30
2018-04-18T13:16:59.314Z,30.50
2018-04-18T13:19:27.487Z,30.30
2018-04-18T13:21:54.937Z,30.30
2018-04-18T13:24:23.128Z,34.30
2018-04-18T13:26:50.545Z,34.30
2018-04-18T13:29:17.954Z,32.80
2018-04-18T13:31:46.123Z,31.60
2018-04-18T13:34:13.522Z,31.70
2018-04-18T13:36:40.944Z,32.10
2018-04-18T13:39:08.345Z,30.20
2018-04-18T13:41:36.526Z,31.00
2018-04-18T13:44:03.971Z,31.00
2018-04-18T13:46:31.411Z,31.10
2018-04-18T13:48:58.827Z,30.10
2018-04-18T13:51:26.235Z,30.30
2018-04-18T13:53:53.651Z,29.90
2018-04-18T13:56:21.051Z,30.40
2018-04-18T13:58:48.470Z,31.70
2018-04-18T14:01:16.637Z,33.00
2018-04-18T14:03:44.806Z,33.20
2018-04-18T14:06:12.221Z,33.10
2018-04-18T14:08:39.715Z,31.00
2018-04-18T14:11:07.116Z,32.20
2018-04-18T14:13:35.291Z,30.90
2018-04-18T14:16:02.695Z,30.90
2018-04-18T14:18:30.102Z,30.00
2018-04-18T14:20:57.507Z,30.80
2018-04-18T14:23:25.680Z,29.70
2018-04-18T14:25:53.091Z,29.70
2018-04-18T14:28:21.292Z,32.50
2018-04-18T14:30:48.734Z,32.30
2018-04-18T14:33:16.882Z,31.40
2018-04-18T14:35:44.283Z,31.40
2018-04-18T14:38:12.503Z,31.10
2018-04-18T14:40:39.910Z,30.90
2018-04-18T14:43:07.315Z,32.00
2018-04-18T14:45:34.943Z,32.70
2018-04-18T14:48:02.334Z,30.50
2018-04-18T14:50:30.496Z,31.20
2018-04-18T14:52:57.899Z,31.10
2018-04-18T14:55:25.325Z,31.90
2018-04-18T14:57:52.752Z,30.80
2018-04-18T15:00:20.204Z,31.80
2018-04-18T15:02:47.588Z,32.30
2018-04-18T15:05:15.773Z,31.00
2018-04-18T15:07:43.242Z,31.00
2018-04-18T15:10:10.687Z,31.50
2018-04-18T15:12:38.117Z,32.30
2018-04-18T15:15:05.540Z,31.30
2018-04-18T15:17:32.946Z,32.50
2018-04-18T15:20:00.438Z,32.50
2018-04-18T15:22:27.839Z,31.70
2018-04-18T15:24:56.011Z,31.90
2018-04-18T15:27:23.435Z,31.90
2018-04-18T15:29:51.622Z,31.50
2018-04-18T15:32:19.026Z,31.50
2018-04-18T15:34:46.424Z,31.60
2018-04-18T15:37:13.885Z,31.60
2018-04-18T15:39:41.283Z,31.80
2018-04-18T15:42:08.688Z,32.50
2018-04-18T15:44:36.097Z,31.40
2018-04-18T15:47:03.515Z,31.80
2018-04-18T15:49:30.981Z,31.40
2018-04-18T15:51:58.370Z,31.00
2018-04-18T15:54:26.568Z,32.00
2018-04-18T15:56:53.966Z,32.00
2018-04-18T15:59:22.154Z,31.60
2018-04-18T16:01:49.558Z,31.50
2018-04-18T16:04:17.046Z,32.60
2018-04-18T16:06:44.462Z,33.40
2018-04-18T16:09:12.651Z,34.40
2018-04-18T16:11:40.054Z,34.40
2018-04-18T16:14:08.246Z,33.30
2018-04-18T16:16:35.679Z,33.30
2018-04-18T16:19:03.131Z,33.70
2018-04-18T16:21:30.539Z,33.40
2018-04-18T16:23:58.711Z,34.80
2018-04-18T16:26:26.121Z,35.30
2018-04-18T16:28:53.534Z,34.60
2018-04-18T16:31:20.947Z,34.30
2018-04-18T16:33:48.347Z,34.40
2018-04-18T16:36:15.747Z,35.00
2018-04-18T16:38:43.156Z,34.20
2018-04-18T16:41:10.567Z,34.20
2018-04-18T16:43:37.963Z,34.20
2018-04-18T16:46:05.379Z,35.20
2018-04-18T16:48:32.790Z,35.20
2018-04-18T16:51:01.008Z,35.50
2018-04-18T16:53:28.402Z,35.50
2018-04-18T16:55:56.578Z,37.50
2018-04-18T16:58:24.051Z,37.40
2018-04-18T17:00:51.491Z,37.30
2018-04-18T17:03:18.945Z,37.70
2018-04-18T17:05:46.379Z,38.20
2018-04-18T17:08:13.791Z,39.30
2018-04-18T17:10:41.255Z,39.70
2018-04-18T17:13:08.702Z,40.50
2018-04-18T17:15:36.109Z,40.60
2018-04-18T17:18:04.297Z,41.70
2018-04-18T17:20:31.696Z,41.60
2018-04-18T17:22:59.862Z,43.40
2018-04-18T17:25:28.034Z,43.70
2018-04-18T17:27:55.495Z,43.70
2018-04-18T17:30:22.917Z,43.70
2018-04-18T17:32:51.086Z,44.80
2018-04-18T17:35:18.500Z,44.80
2018-04-18T17:37:46.675Z,45.50
2018-04-18T17:40:14.079Z,45.50
2018-04-18T17:42:41.483Z,45.80
2018-04-18T17:45:08.900Z,46.20
2018-04-18T17:47:36.323Z,46.20
2018-04-18T17:50:04.479Z,47.10
2018-04-18T17:52:32.679Z,46.50
2018-04-18T17:55:00.082Z,46.40
2018-04-18T17:57:28.287Z,48.30
2018-04-18T17:59:55.706Z,48.30
2018-04-18T18:02:23.108Z,47.50
2018-04-18T18:04:50.519Z,47.00
2018-04-18T18:07:17.939Z,46.10
2018-04-18T18:09:45.355Z,46.10
2018-04-18T18:12:12.831Z,45.20
2018-04-18T18:14:40.243Z,46.00
2018-04-18T18:17:07.718Z,46.40
2018-04-18T18:19:35.114Z,46.70
2018-04-18T18:22:03.282Z,48.80
2018-04-18T18:24:30.703Z,48.80
2018-04-18T18:26:58.886Z,49.50
2018-04-18T18:29:27.056Z,49.80
2018-04-18T18:31:54.551Z,49.80
2018-04-18T18:34:22.059Z,50.50
2018-04-18T18:36:49.463Z,51.20
2018-04-18T18:39:17.638Z,52.70
2018-04-18T18:41:45.946Z,52.60
2018-04-18T18:44:13.371Z,51.40
2018-04-18T18:46:40.793Z,51.50
2018-04-18T18:49:08.239Z,53.10
2018-04-18T18:51:35.639Z,53.30
2018-04-18T18:54:03.811Z,51.00
2018-04-18T18:56:31.979Z,51.40
2018-04-18T18:58:59.443Z,51.40
2018-04-18T19:01:26.879Z,50.70
2018-04-18T19:03:54.295Z,52.40
2018-04-18T19:06:21.701Z,52.60
2018-04-18T19:08:49.119Z,53.20
2018-04-18T19:11:16.523Z,52.90
2018-04-18T19:13:44.695Z,53.30
2018-04-18T19:16:12.095Z,53.30
2018-04-18T19:18:39.505Z,52.20
2018-04-18T19:21:06.950Z,54.80
2018-04-18T19:23:34.371Z,54.80
2018-04-18T19:26:01.779Z,53.60
2018-04-18T19:28:30.080Z,55.00
2018-04-18T19:30:57.400Z,54.90
2018-04-18T19:33:24.814Z,54.20
2018-04-18T19:35:52.249Z,52.80
2018-04-18T19:38:19.651Z,52.90
2018-04-18T19:40:47.057Z,52.40
2018-04-18T19:43:14.450Z,53.20
2018-04-18T19:45:41.862Z,53.60
2018-04-18T19:48:10.075Z,53.30
2018-04-18T19:50:38.268Z,53.80
2018-04-18T19:53:05.679Z,53.80
2018-04-18T19:55:33.881Z,53.80
2018-04-18T19:58:02.056Z,53.50
2018-04-18T20:00:29.466Z,53.50
2018-04-18T20:02:56.867Z,54.10
2018-04-18T20:05:24.291Z,54.30
2018-04-18T20:07:51.697Z,54.40
2018-04-18T20:10:19.109Z,55.10
2018-04-18T20:12:47.284Z,54.10
2018-04-18T20:15:14.741Z,54.10
2018-04-18T20:17:42.862Z,55.20
2018-04-18T20:20:11.034Z,55.50
2018-04-18T20:22:38.460Z,55.50
2018-04-18T20:25:05.860Z,55.80
2018-04-18T20:27:33.258Z,55.40
2018-04-18T20:30:00.658Z,56.00
2018-04-18T20:32:28.050Z,55.80
2018-04-18T20:34:55.462Z,57.30
2018-04-18T20:37:22.879Z,56.10
2018-04-18T20:39:50.271Z,56.20
2018-04-18T20:42:17.695Z,56.80
2018-04-18T20:44:45.103Z,56.80
2018-04-18T20:47:12.511Z,58.20
2018-04-18T20:49:39.907Z,57.90
2018-04-18T20:52:08.079Z,58.70
2018-04-18T20:54:36.242Z,58.70
2018-04-18T20:57:03.656Z,58.70
2018-04-18T20:59:31.053Z,58.70
2018-04-18T21:01:58.468Z,58.20
2018-04-18T21:04:25.872Z,58.20
2018-04-18T21:06:53.474Z,58.70
2018-04-18T21:09:20.874Z,59.80
2018-04-18T21:11:49.042Z,59.90
2018-04-18T21:14:16.468Z,59.80
2018-04-18T21:16:43.871Z,59.80
2018-04-18T21:19:11.278Z,60.00
2018-04-18T21:21:38.678Z,59.40
2018-04-18T21:24:06.090Z,59.00
2018-04-18T21:26:33.515Z,59.60
2018-04-18T21:29:00.900Z,58.60
2018-04-18T21:31:28.314Z,58.60
2018-04-18T21:33:55.818Z,58.60
2018-04-18T21:36:23.983Z,59.80
2018-04-18T21:38:51.387Z,59.80
2018-04-18T21:41:18.796Z,59.20
2018-04-18T21:43:46.207Z,59.40
2018-04-18T21:46:13.594Z,59.70
2018-04-18T21:48:41.010Z,59.40
2018-04-18T21:51:08.431Z,60.90
2018-04-18T21:53:35.991Z,61.60
2018-04-18T21:56:03.440Z,61.60
2018-04-18T21:58:30.859Z,62.80
2018-04-18T22:00:58.262Z,63.60
2018-04-18T22:03:25.679Z,63.80
2018-04-18T22:05:53.100Z,64.20
2018-04-18T22:08:20.530Z,63.60
2018-04-18T22:10:47.948Z,64.50
2018-04-18T22:13:16.132Z,66.10
2018-04-18T22:15:43.527Z,66.00
2018-04-18T22:18:10.932Z,66.70
2018-04-18T22:20:38.358Z,67.50
2018-04-18T22:23:05.769Z,68.20
2018-04-18T22:25:33.942Z,69.40
2018-04-18T22:28:01.335Z,69.30
2018-04-18T22:30:28.734Z,69.40
2018-04-18T22:32:56.148Z,70.60
2018-04-18T22:35:24.317Z,72.50
2018-04-18T22:37:52.482Z,71.70
2018-04-18T22:40:19.898Z,71.60
2018-04-18T22:42:48.078Z,73.70
2018-04-18T22:45:15.553Z,73.50
2018-04-18T22:47:42.986Z,74.40
2018-04-18T22:50:10.382Z,74.80
2018-04-18T22:52:38.587Z,76.90
2018-04-18T22:55:06.001Z,76.80
2018-04-18T22:57:33.470Z,77.80
2018-04-18T23:00:00.889Z,78.10
2018-04-18T23:02:28.362Z,78.30
2018-04-18T23:04:55.787Z,79.20
2018-04-18T23:07:23.249Z,79.00
2018-04-18T23:09:50.642Z,80.20
2018-04-18T23:12:18.828Z,80.80
2018-04-18T23:14:46.233Z,80.80
2018-04-18T23:17:14.406Z,82.30
2018-04-18T23:19:41.896Z,82.10
2018-04-18T23:22:09.304Z,82.70
2018-04-18T23:24:36.712Z,83.60
2018-04-18T23:27:04.111Z,84.10
2018-04-18T23:29:31.528Z,85.00
2018-04-18T23:31:58.931Z,85.40
2018-04-18T23:34:26.367Z,85.90
2018-04-18T23:36:53.767Z,86.80
2018-04-18T23:39:21.211Z,86.50
2018-04-18T23:41:48.619Z,87.60
2018-04-18T23:44:16.786Z,87.60
2018-04-18T23:46:44.202Z,87.60
2018-04-18T23:49:11.588Z,88.50
2018-04-18T23:51:38.987Z,88.60
2018-04-18T23:54:07.159Z,89.40
2018-04-18T23:56:34.585Z,89.30
2018-04-18T23:59:01.981Z,90.00
